Time;durP1;ratioP1;P1;durP2;ratioP2;P2;SDS_P1;SDS_P2;PMS_P1;PMS_P2;Temp;Humidity;BMP_temperature;BMP_pressure;BME280_temperature;BME280_humidity;BME280_pressure;Samples;Min_cycle;Max_cycle;Signal;HPM_P1;HPM_P2
2022/02/22 00:00:59;;;;;;;23.30;4.63;;;9.00;74.80;;;;;;5040659;28;20031;-76
2022/02/22 00:03:25;;;;;;;25.30;4.38;;;9.00;74.90;;;;;;5056248;28;20035;-76
2022/02/22 00:05:50;;;;;;;21.13;5.43;;;8.90;75.40;;;;;;5057519;28;20837;-76
2022/02/22 00:08:16;;;;;;;25.13;5.00;;;8.80;75.60;;;;;;5041087;28;20029;-76
2022/02/22 00:10:42;;;;;;;20.85;4.22;;;8.80;75.60;;;;;;5035832;28;20025;-76
2022/02/22 00:13:07;;;;;;;21.63;5.53;;;8.80;75.80;;;;;;5037047;28;20773;-76
2022/02/22 00:15:33;;;;;;;23.85;4.63;;;8.80;75.80;;;;;;5040214;28;20506;-75
2022/02/22 00:17:59;;;;;;;25.48;5.00;;;8.70;75.80;;;;;;5037341;28;20029;-75
2022/02/22 00:20:24;;;;;;;24.00;4.30;;;8.70;75.80;;;;;;5035883;28;20060;-76
2022/02/22 00:22:50;;;;;;;20.60;4.22;;;8.70;76.00;;;;;;5036757;28;20033;-76
2022/02/22 00:25:16;;;;;;;26.17;4.82;;;8.70;76.10;;;;;;5037111;28;20022;-76
2022/02/22 00:27:45;;;;;;;21.08;4.13;;;8.70;76.10;;;;;;5035272;28;20216;-75
2022/02/22 00:30:12;;;;;;;23.83;5.15;;;8.80;76.30;;;;;;5035699;28;20527;-76
2022/02/22 00:32:41;;;;;;;15.57;3.80;;;8.80;76.40;;;;;;5035563;28;20029;-76
2022/02/22 00:35:11;;;;;;;22.55;4.95;;;8.90;76.60;;;;;;5036945;28;20036;-76
2022/02/22 00:37:38;;;;;;;24.90;4.97;;;8.90;76.40;;;;;;5036684;28;20045;-76
2022/02/22 00:40:05;;;;;;;28.88;4.80;;;8.90;76.70;;;;;;5036949;28;20116;-75
2022/02/22 00:42:32;;;;;;;29.05;5.47;;;8.90;76.80;;;;;;5036806;28;20014;-75
2022/02/22 00:44:57;;;;;;;20.02;4.10;;;8.90;76.90;;;;;;5037003;28;20450;-76
2022/02/22 00:47:23;;;;;;;25.73;4.13;;;8.90;76.70;;;;;;5036214;28;20029;-75
2022/02/22 00:49:49;;;;;;;27.20;4.43;;;8.90;76.70;;;;;;5037115;28;20029;-75
2022/02/22 00:52:14;;;;;;;29.45;4.28;;;8.90;76.60;;;;;;5036595;28;20133;-76
2022/02/22 00:54:40;;;;;;;18.77;4.57;;;8.80;76.90;;;;;;5035159;28;20566;-76
2022/02/22 00:57:06;;;;;;;15.63;4.47;;;8.80;76.80;;;;;;5035229;28;20036;-76
2022/02/22 00:59:31;;;;;;;23.00;4.28;;;8.70;77.10;;;;;;5036312;28;20805;-75
2022/02/22 01:01:57;;;;;;;18.98;4.50;;;8.70;77.20;;;;;;5047070;28;20048;-75
2022/02/22 01:04:24;;;;;;;24.30;4.65;;;8.70;76.90;;;;;;5056552;28;20034;-76
2022/02/22 01:06:50;;;;;;;20.58;4.22;;;8.70;77.10;;;;;;5056477;28;20402;-76
2022/02/22 01:09:15;;;;;;;25.73;4.60;;;8.60;77.70;;;;;;5053185;28;20127;-76
2022/02/22 01:11:42;;;;;;;22.90;4.13;;;8.50;78.00;;;;;;5036516;28;20052;-76
2022/02/22 01:14:08;;;;;;;25.42;4.55;;;8.50;78.00;;;;;;5036213;28;20075;-75
2022/02/22 01:16:33;;;;;;;24.52;4.25;;;8.50;77.90;;;;;;5062485;28;20028;-75
2022/02/22 01:18:59;;;;;;;24.02;4.20;;;8.50;78.10;;;;;;5076026;28;20118;-75
2022/02/22 01:21:26;;;;;;;27.15;5.85;;;8.50;78.00;;;;;;5076032;28;20017;-75
2022/02/22 01:23:51;;;;;;;22.25;4.25;;;8.50;78.00;;;;;;5049514;28;20030;-76
2022/02/22 01:26:17;;;;;;;29.88;4.82;;;8.40;78.70;;;;;;5035974;28;20028;-76
2022/02/22 01:28:43;;;;;;;30.05;5.10;;;8.50;78.30;;;;;;5035875;28;20060;-76
2022/02/22 01:31:10;;;;;;;24.65;5.65;;;8.60;78.60;;;;;;5034878;28;20036;-75
2022/02/22 01:33:36;;;;;;;15.95;3.53;;;8.70;78.30;;;;;;5033977;28;20040;-76
2022/02/22 01:36:03;;;;;;;20.10;4.07;;;8.80;77.90;;;;;;5035842;28;20021;-76
2022/02/22 01:38:28;;;;;;;23.08;4.35;;;8.80;77.80;;;;;;5054237;28;20029;-75
2022/02/22 01:40:56;;;;;;;21.10;4.10;;;8.90;77.70;;;;;;5054302;28;20021;-76
2022/02/22 01:43:23;;;;;;;28.48;4.57;;;8.80;77.90;;;;;;5043736;28;20079;-76
2022/02/22 01:45:49;;;;;;;23.10;4.40;;;8.80;77.70;;;;;;5034333;28;20032;-75
2022/02/22 01:48:15;;;;;;;23.05;4.78;;;8.80;78.00;;;;;;5035758;28;20021;-76
2022/02/22 01:50:40;;;;;;;25.67;4.22;;;8.80;77.80;;;;;;5035742;28;20036;-76
2022/02/22 01:53:07;;;;;;;26.13;4.57;;;8.70;78.00;;;;;;5035257;28;20061;-75
2022/02/22 01:55:32;;;;;;;21.08;4.18;;;8.70;78.00;;;;;;5035646;28;20057;-76
2022/02/22 01:57:58;;;;;;;22.67;4.10;;;8.70;78.20;;;;;;5035243;28;20036;-76
2022/02/22 02:00:27;;;;;;;22.35;4.60;;;8.70;77.90;;;;;;5052114;28;20025;-76
2022/02/22 02:02:53;;;;;;;23.48;4.47;;;8.70;78.10;;;;;;5055316;28;20021;-76
2022/02/22 02:05:19;;;;;;;27.85;4.72;;;8.70;78.20;;;;;;5055347;28;20497;-75
2022/02/22 02:07:44;;;;;;;20.60;4.13;;;8.70;78.20;;;;;;5050205;28;20061;-76
2022/02/22 02:10:10;;;;;;;19.98;4.57;;;8.70;78.30;;;;;;5035468;28;20034;-76
2022/02/22 02:12:40;;;;;;;27.58;4.93;;;8.60;78.60;;;;;;5035413;28;20040;-76
2022/02/22 02:15:07;;;;;;;19.35;4.03;;;8.60;78.70;;;;;;5045759;28;20175;-76
2022/02/22 02:17:34;;;;;;;17.45;3.80;;;8.60;79.00;;;;;;5074666;28;20036;-75
2022/02/22 02:20:04;;;;;;;14.20;4.38;;;8.70;78.90;;;;;;5059739;28;20025;-76
2022/02/22 02:22:29;;;;;;;17.30;3.63;;;8.70;78.90;;;;;;5053149;28;20021;-76
2022/02/22 02:24:55;;;;;;;19.85;4.03;;;8.80;79.00;;;;;;5041269;28;20017;-76
2022/02/22 02:27:21;;;;;;;21.85;4.63;;;8.80;79.00;;;;;;5055001;28;20035;-76
2022/02/22 02:29:46;;;;;;;21.00;4.30;;;8.90;78.90;;;;;;5040155;28;20174;-76
2022/02/22 02:32:12;;;;;;;22.10;4.60;;;8.90;78.80;;;;;;5033707;28;20033;-76
2022/02/22 02:34:38;;;;;;;18.10;4.03;;;8.90;78.90;;;;;;5035047;28;20032;-76
2022/02/22 02:37:04;;;;;;;26.60;4.78;;;9.00;78.70;;;;;;5035833;28;20076;-76
2022/02/22 02:39:29;;;;;;;20.63;4.10;;;9.10;78.50;;;;;;5054808;28;20119;-76
2022/02/22 02:41:55;;;;;;;23.10;4.22;;;9.00;79.00;;;;;;5051149;28;20029;-76
2022/02/22 02:44:23;;;;;;;22.55;4.47;;;9.10;78.70;;;;;;5034975;28;20021;-76
2022/02/22 02:46:49;;;;;;;28.42;5.05;;;9.10;78.80;;;;;;5037437;28;20052;-76
2022/02/22 02:49:17;;;;;;;15.25;3.85;;;9.10;78.70;;;;;;5043881;28;20021;-76
2022/02/22 02:51:44;;;;;;;21.30;3.72;;;9.00;79.00;;;;;;5059190;28;20060;-76
2022/02/22 02:54:10;;;;;;;26.38;4.32;;;9.10;78.90;;;;;;5058752;28;20028;-76
2022/02/22 02:56:36;;;;;;;17.23;4.30;;;9.10;79.00;;;;;;5049263;28;20029;-76
2022/02/22 02:59:05;;;;;;;27.27;5.30;;;9.10;79.00;;;;;;5038801;28;20037;-76
2022/02/22 03:01:33;;;;;;;19.95;4.35;;;9.10;79.00;;;;;;5038725;28;20067;-76
2022/02/22 03:03:59;;;;;;;25.55;4.20;;;9.20;79.00;;;;;;5038707;28;20069;-75
2022/02/22 03:06:25;;;;;;;24.60;4.57;;;9.20;79.20;;;;;;5058649;28;20036;-76
2022/02/22 03:08:51;;;;;;;19.80;3.80;;;9.20;79.20;;;;;;5058722;28;20029;-76
2022/02/22 03:11:17;;;;;;;19.30;4.00;;;9.20;79.10;;;;;;5058538;28;20029;-76
2022/02/22 03:13:42;;;;;;;23.35;5.25;;;9.30;78.90;;;;;;5051247;28;20074;-76
2022/02/22 03:16:11;;;;;;;22.00;4.80;;;9.30;79.30;;;;;;5057054;28;20367;-76
2022/02/22 03:18:38;;;;;;;23.23;4.57;;;9.30;79.20;;;;;;5076987;28;20028;-76
2022/02/22 03:21:04;;;;;;;17.48;3.50;;;9.30;79.10;;;;;;5041162;28;20156;-76
2022/02/22 03:23:29;;;;;;;18.17;4.40;;;9.40;79.10;;;;;;5036953;28;20377;-76
2022/02/22 03:25:55;;;;;;;20.90;4.47;;;9.50;78.80;;;;;;5038381;28;20029;-76
2022/02/22 03:28:21;;;;;;;19.23;4.00;;;9.50;78.80;;;;;;5037999;28;20050;-76
2022/02/22 03:30:47;;;;;;;18.08;4.82;;;9.50;78.80;;;;;;5036766;28;20804;-76
2022/02/22 03:33:14;;;;;;;23.58;4.18;;;9.50;78.80;;;;;;5038195;28;20025;-76
2022/02/22 03:35:41;;;;;;;22.45;4.05;;;9.60;78.60;;;;;;5038200;28;20033;-76
2022/02/22 03:38:07;;;;;;;20.08;3.88;;;9.60;78.60;;;;;;5037982;28;20108;-76
2022/02/22 03:40:32;;;;;;;22.67;3.28;;;9.60;78.50;;;;;;5038084;28;20475;-75
2022/02/22 03:42:58;;;;;;;26.40;5.03;;;9.60;78.50;;;;;;5036890;28;20018;-76
2022/02/22 03:45:25;;;;;;;21.65;5.40;;;9.60;78.90;;;;;;5037835;28;20056;-76
2022/02/22 03:47:50;;;;;;;21.80;3.67;;;9.50;78.90;;;;;;5037701;28;20048;-76
2022/02/22 03:50:16;;;;;;;13.57;3.50;;;9.60;79.10;;;;;;5037677;28;20025;-76
2022/02/22 03:52:43;;;;;;;20.35;4.07;;;9.50;79.10;;;;;;5037840;28;20395;-76
2022/02/22 03:55:09;;;;;;;16.17;3.90;;;9.50;79.00;;;;;;5037840;28;20033;-76
2022/02/22 03:57:35;;;;;;;21.20;3.80;;;9.60;79.10;;;;;;5037039;28;20026;-76
2022/02/22 04:00:05;;;;;;;20.13;4.20;;;9.60;79.00;;;;;;5037740;28;20375;-76
2022/02/22 04:02:31;;;;;;;;;;;9.50;79.50;;;;;;5038017;28;20654;-76
2022/02/22 04:04:57;;;;;;;17.85;4.38;;;9.30;80.00;;;;;;5057191;28;19978;-76
2022/02/22 04:07:23;;;;;;;14.80;3.63;;;9.40;80.10;;;;;;5057047;28;20071;-76
2022/02/22 04:09:48;;;;;;;17.90;4.82;;;9.50;79.90;;;;;;5057550;28;20044;-76
2022/02/22 04:12:17;;;;;;;22.60;4.40;;;9.50;79.70;;;;;;5054050;28;20037;-76
2022/02/22 04:14:43;;;;;;;24.73;5.05;;;9.50;79.80;;;;;;5037437;28;20623;-76
2022/02/22 04:17:09;;;;;;;23.02;5.00;;;9.60;79.60;;;;;;5073652;28;20089;-76
2022/02/22 04:19:35;;;;;;;18.70;3.58;;;9.60;79.70;;;;;;5077299;28;20048;-76
2022/02/22 04:22:00;;;;;;;22.73;4.88;;;9.60;79.60;;;;;;5063528;28;20037;-76
2022/02/22 04:24:26;;;;;;;22.50;4.38;;;9.60;79.70;;;;;;5057192;28;20021;-76
2022/02/22 04:26:52;;;;;;;13.75;2.90;;;9.70;79.60;;;;;;5057186;28;20033;-75
2022/02/22 04:29:17;;;;;;;21.60;3.45;;;9.70;79.70;;;;;;5057088;28;20101;-76
2022/02/22 04:31:43;;;;;;;11.38;3.67;;;9.60;79.90;;;;;;5042531;28;20044;-76
2022/02/22 04:34:09;;;;;;;25.50;4.10;;;9.70;80.10;;;;;;5037167;28;20025;-76
2022/02/22 04:36:36;;;;;;;21.92;3.83;;;9.70;80.10;;;;;;5037065;28;20115;-76
2022/02/22 04:39:03;;;;;;;18.02;3.30;;;9.70;80.10;;;;;;5036889;28;20029;-76
2022/02/22 04:41:29;;;;;;;21.38;4.22;;;9.70;80.00;;;;;;5035192;28;20036;-76
2022/02/22 04:43:55;;;;;;;21.55;4.90;;;9.80;80.20;;;;;;5044266;28;20025;-75
2022/02/22 04:46:20;;;;;;;18.77;3.70;;;9.70;80.40;;;;;;5056280;28;20029;-76
2022/02/22 04:48:46;;;;;;;11.15;3.53;;;9.80;80.30;;;;;;5044064;28;20032;-76
2022/02/22 04:51:12;;;;;;;14.13;3.65;;;9.80;80.30;;;;;;5036703;28;20029;-76
2022/02/22 04:53:37;;;;;;;25.50;4.18;;;9.80;80.40;;;;;;5036658;28;20426;-75
2022/02/22 04:56:03;;;;;;;25.05;5.57;;;9.70;80.30;;;;;;5036606;28;20087;-76
2022/02/22 04:58:29;;;;;;;26.30;5.07;;;9.70;80.60;;;;;;5036256;28;20022;-76
2022/02/22 05:00:55;;;;;;;22.52;4.25;;;9.70;80.60;;;;;;5050895;28;20033;-76
2022/02/22 05:03:21;;;;;;;14.93;3.72;;;9.70;80.60;;;;;;5055128;28;20025;-76
2022/02/22 05:05:49;;;;;;;17.05;4.03;;;9.80;80.60;;;;;;5055241;28;20403;-76
2022/02/22 05:08:15;;;;;;;22.73;4.63;;;9.80;80.50;;;;;;5051107;28;20028;-76
2022/02/22 05:10:41;;;;;;;17.25;3.35;;;9.80;80.50;;;;;;5036270;28;20044;-76
2022/02/22 05:13:07;;;;;;;14.95;3.22;;;9.80;80.90;;;;;;5041911;28;20032;-76
2022/02/22 05:15:33;;;;;;;18.35;3.65;;;9.80;81.10;;;;;;5060874;28;20020;-76
2022/02/22 05:18:00;;;;;;;15.30;4.38;;;9.70;81.50;;;;;;5076118;28;20024;-76
2022/02/22 05:20:26;;;;;;;19.17;4.85;;;9.80;81.50;;;;;;5066908;28;20029;-76
2022/02/22 05:22:52;;;;;;;16.48;3.63;;;9.80;81.90;;;;;;5056106;28;20056;-76
2022/02/22 05:25:17;;;;;;;11.73;3.45;;;9.80;81.90;;;;;;5056035;28;20021;-76
2022/02/22 05:27:44;;;;;;;17.58;4.30;;;9.80;82.00;;;;;;5043294;28;20021;-76
2022/02/22 05:30:13;;;;;;;28.23;4.38;;;9.80;82.20;;;;;;5036122;28;20526;-76
2022/02/22 05:32:39;;;;;;;28.00;4.93;;;9.80;82.50;;;;;;5035656;28;20029;-76
2022/02/22 05:35:06;;;;;;;21.50;4.72;;;9.80;82.60;;;;;;5035795;28;20038;-76
2022/02/22 05:37:32;;;;;;;23.38;4.82;;;9.80;82.70;;;;;;5035381;28;20032;-76
2022/02/22 05:39:58;;;;;;;23.83;4.05;;;9.90;82.70;;;;;;5035769;28;20112;-76
2022/02/22 05:42:24;;;;;;;28.65;3.97;;;9.90;82.80;;;;;;5035822;28;20060;-76
2022/02/22 05:44:50;;;;;;;32.72;4.90;;;9.80;83.10;;;;;;5035650;28;20435;-76
2022/02/22 05:47:16;;;;;;;22.88;3.95;;;9.90;83.00;;;;;;5035945;28;20017;-76
2022/02/22 05:49:42;;;;;;;25.60;4.50;;;9.90;82.80;;;;;;5035430;28;20075;-78
2022/02/22 06:21:07;;;;;;;18.27;3.95;;;8.40;88.80;;;;;;5072395;28;20515;-81
2022/02/22 06:23:32;;;;;;;18.48;4.63;;;8.50;88.90;;;;;;5053281;28;20021;-79
2022/02/22 06:25:58;;;;;;;26.25;4.75;;;8.70;88.40;;;;;;5058297;28;20030;-79
2022/02/22 06:28:24;;;;;;;25.52;4.65;;;9.10;87.80;;;;;;5044661;28;20117;-79
2022/02/22 06:30:49;;;;;;;28.58;5.03;;;9.40;87.00;;;;;;5050683;28;20033;-79
2022/02/22 06:33:15;;;;;;;28.08;5.63;;;9.60;86.40;;;;;;5051950;28;20052;-76
2022/02/22 06:35:41;;;;;;;22.45;4.55;;;9.70;85.60;;;;;;5044114;28;20030;-77
2022/02/22 06:38:06;;;;;;;22.38;4.63;;;9.80;85.30;;;;;;5046678;28;20033;-77
2022/02/22 06:40:32;;;;;;;28.77;5.35;;;9.90;85.30;;;;;;5052078;28;20037;-76
2022/02/22 06:42:58;;;;;;;21.85;4.63;;;9.90;84.80;;;;;;5050490;28;20083;-80
2022/02/22 06:45:24;;;;;;;23.23;5.38;;;9.90;85.10;;;;;;5050452;28;20029;-77
2022/02/22 06:47:50;;;;;;;17.42;3.92;;;10.10;84.60;;;;;;5051886;28;20029;-77
2022/02/22 06:50:16;;;;;;;24.13;4.50;;;10.10;84.40;;;;;;5051823;28;20105;-77
2022/02/22 06:52:42;;;;;;;25.08;5.07;;;10.20;84.10;;;;;;5042980;28;20021;-87
2022/02/22 06:55:09;;;;;;;16.90;3.40;;;10.20;84.10;;;;;;5032179;28;20128;-82
2022/02/22 06:57:35;;;;;;;27.88;4.72;;;10.20;84.00;;;;;;5032137;28;20084;-85
2022/02/22 07:00:02;;;;;;;22.05;4.90;;;10.30;83.80;;;;;;5031924;28;20034;-86
2022/02/22 07:02:28;;;;;;;17.83;3.95;;;10.30;83.60;;;;;;5031442;28;20392;-86
2022/02/22 07:04:54;;;;;;;27.38;4.82;;;10.30;83.90;;;;;;5031943;28;20034;-85
2022/02/22 07:07:19;;;;;;;23.65;4.32;;;10.30;84.00;;;;;;5037741;28;20128;-85
2022/02/22 07:09:45;;;;;;;23.95;4.00;;;10.40;84.00;;;;;;5031889;28;20045;-86
2022/02/22 07:12:11;;;;;;;22.23;4.30;;;10.30;84.00;;;;;;5046016;28;20044;-85
2022/02/22 07:14:36;;;;;;;16.85;3.90;;;10.40;83.90;;;;;;5050284;28;20033;-86
2022/02/22 07:17:02;;;;;;;14.93;3.83;;;10.50;83.80;;;;;;5067487;28;20486;-85
2022/02/22 07:19:28;;;;;;;21.83;4.30;;;10.50;83.90;;;;;;5071319;28;20454;-86
2022/02/22 07:21:54;;;;;;;25.92;3.97;;;10.50;83.70;;;;;;5071050;28;20020;-85
2022/02/22 07:24:20;;;;;;;17.48;3.20;;;10.50;84.00;;;;;;5059677;28;20033;-86
2022/02/22 07:26:46;;;;;;;18.48;3.70;;;10.50;84.20;;;;;;5051426;28;20026;-85
2022/02/22 07:29:11;;;;;;;23.88;4.05;;;10.50;84.40;;;;;;5051285;28;20025;-85
2022/02/22 07:31:37;;;;;;;18.15;3.42;;;10.50;84.40;;;;;;5031835;28;20057;-84
2022/02/22 07:34:02;;;;;;;20.83;3.50;;;10.50;84.50;;;;;;5016997;28;20030;-86
2022/02/22 07:36:28;;;;;;;24.77;5.07;;;10.60;84.40;;;;;;5018184;28;20026;-85
2022/02/22 07:38:54;;;;;;;13.13;3.63;;;10.60;84.60;;;;;;5022390;28;20025;-86
2022/02/22 07:41:22;;;;;;;13.48;3.15;;;10.60;84.80;;;;;;5037729;28;20104;-86
2022/02/22 07:43:51;;;;;;;20.13;3.78;;;10.60;84.90;;;;;;5037908;28;20029;-86
2022/02/22 07:46:18;;;;;;;10.80;3.13;;;10.60;84.90;;;;;;5037929;28;20025;-85
2022/02/22 07:48:45;;;;;;;21.70;4.05;;;10.70;85.00;;;;;;5025918;28;20029;-85
2022/02/22 07:51:16;;;;;;;18.83;3.53;;;10.70;85.10;;;;;;5017950;28;20041;-86
2022/02/22 07:53:45;;;;;;;18.48;3.65;;;10.70;85.20;;;;;;5017730;28;20026;-86
2022/02/22 07:56:12;;;;;;;17.33;4.45;;;10.80;85.30;;;;;;5017825;28;20133;-85
2022/02/22 07:58:38;;;;;;;18.95;4.45;;;10.90;85.30;;;;;;5017591;28;20048;-85
2022/02/22 08:01:05;;;;;;;21.35;4.55;;;10.80;85.40;;;;;;5026342;28;20096;-86
2022/02/22 08:03:31;;;;;;;18.08;4.22;;;10.90;85.40;;;;;;5037440;28;20025;-86
2022/02/22 08:05:57;;;;;;;19.27;4.22;;;11.00;85.40;;;;;;5037596;28;20514;-85
2022/02/22 08:08:23;;;;;;;17.45;3.20;;;10.90;85.80;;;;;;5037277;28;20021;-86
2022/02/22 08:10:49;;;;;;;19.00;2.97;;;11.00;85.80;;;;;;5024189;28;20026;-86
2022/02/22 08:13:14;;;;;;;16.23;3.15;;;11.00;85.80;;;;;;5037271;28;20017;-86
2022/02/22 08:15:40;;;;;;;15.60;3.95;;;11.10;85.60;;;;;;5043101;28;20025;-86
2022/02/22 08:18:06;;;;;;;18.17;3.40;;;11.10;85.80;;;;;;5056843;28;20035;-86
2022/02/22 08:20:31;;;;;;;16.38;3.53;;;11.10;85.80;;;;;;5026410;28;20104;-85
2022/02/22 08:22:57;;;;;;;16.73;3.67;;;11.10;85.90;;;;;;5017316;28;20037;-88
2022/02/22 08:25:23;;;;;;;18.52;3.72;;;11.20;85.80;;;;;;5048980;28;20065;-85
2022/02/22 08:27:48;;;;;;;19.08;4.13;;;11.20;85.90;;;;;;5017504;28;20437;-87
2022/02/22 08:30:14;;;;;;;18.48;3.78;;;11.30;85.80;;;;;;5017032;28;20030;-86
2022/02/22 08:32:40;;;;;;;18.48;4.75;;;11.30;85.50;;;;;;5016891;28;20088;-86
2022/02/22 08:35:06;;;;;;;15.90;3.67;;;11.40;85.60;;;;;;5016696;28;20030;-85
2022/02/22 08:37:32;;;;;;;19.67;3.65;;;11.40;85.60;;;;;;5016905;28;20105;-86
2022/02/22 08:39:58;;;;;;;13.13;3.58;;;11.40;85.80;;;;;;5032039;28;20479;-86
2022/02/22 08:42:24;;;;;;;19.02;4.28;;;11.40;85.80;;;;;;5016103;28;20025;-86
2022/02/22 08:44:50;;;;;;;16.00;3.88;;;11.40;86.00;;;;;;5016713;28;20033;-86
2022/02/22 08:47:15;;;;;;;16.30;3.63;;;11.50;85.90;;;;;;5016880;28;20030;-86
2022/02/22 08:49:42;;;;;;;22.42;4.93;;;11.60;85.70;;;;;;5048368;28;20026;-86
2022/02/22 08:52:08;;;;;;;12.82;4.28;;;11.50;85.90;;;;;;5055447;28;20025;-85
2022/02/22 08:54:33;;;;;;;17.67;3.83;;;11.60;85.90;;;;;;5036206;28;20036;-86
2022/02/22 08:56:59;;;;;;;11.43;3.05;;;11.60;85.90;;;;;;5036395;28;20108;-85
2022/02/22 08:59:24;;;;;;;13.55;3.33;;;11.70;85.90;;;;;;5034954;28;20029;-86
2022/02/22 09:01:50;;;;;;;23.67;3.83;;;11.70;85.70;;;;;;5035159;28;20029;-87
2022/02/22 09:04:16;;;;;;;12.82;3.53;;;11.70;85.70;;;;;;5036291;28;20032;-87
2022/02/22 09:06:41;;;;;;;14.80;3.30;;;11.80;85.90;;;;;;5030223;28;20022;-85
2022/02/22 09:09:07;;;;;;;11.98;2.92;;;11.80;85.80;;;;;;5016262;28;20034;-86
2022/02/22 09:11:33;;;;;;;15.65;4.20;;;11.90;85.70;;;;;;5032679;28;20075;-86
2022/02/22 09:13:58;;;;;;;10.85;3.50;;;12.00;85.50;;;;;;5035676;28;20032;-85
2022/02/22 09:16:24;;;;;;;17.73;4.30;;;12.00;85.30;;;;;;5047106;28;20013;-85
2022/02/22 09:18:50;;;;;;;12.48;3.60;;;12.00;85.50;;;;;;5055647;28;20028;-85
2022/02/22 09:21:15;;;;;;;11.82;3.50;;;12.00;85.30;;;;;;5055935;28;20045;-86
2022/02/22 09:23:41;;;;;;;11.93;3.17;;;12.00;85.40;;;;;;5033222;28;20057;-86
2022/02/22 09:26:07;;;;;;;14.30;4.72;;;12.10;85.30;;;;;;5015966;28;20076;-86
2022/02/22 09:28:32;;;;;;;11.95;3.17;;;12.20;85.20;;;;;;5048039;28;20145;-86
2022/02/22 09:30:58;;;;;;;12.68;3.10;;;12.20;85.10;;;;;;5023384;28;20034;-85
2022/02/22 09:33:24;;;;;;;10.27;3.50;;;12.20;84.90;;;;;;5035753;28;20029;-86
2022/02/22 09:35:50;;;;;;;12.77;3.60;;;12.30;84.60;;;;;;5034128;28;20040;-85
2022/02/22 09:38:15;;;;;;;12.77;3.30;;;12.30;84.80;;;;;;5034393;28;20018;-86
2022/02/22 09:40:41;;;;;;;15.02;3.20;;;12.40;84.80;;;;;;5018193;28;20110;-86
2022/02/22 09:43:07;;;;;;;10.77;3.67;;;12.50;84.40;;;;;;5018471;28;20026;-86
2022/02/22 09:45:32;;;;;;;12.60;3.33;;;12.50;84.50;;;;;;5035489;28;20445;-86
2022/02/22 09:48:01;;;;;;;13.95;3.13;;;12.70;84.30;;;;;;5033912;28;20060;-86
2022/02/22 09:50:28;;;;;;;13.95;3.03;;;12.80;84.10;;;;;;5035373;28;20052;-86
2022/02/22 09:52:54;;;;;;;9.18;3.83;;;13.00;83.50;;;;;;5017743;28;20022;-86
2022/02/22 09:55:20;;;;;;;13.40;2.53;;;13.10;82.90;;;;;;5015531;28;20791;-86
2022/02/22 09:57:46;;;;;;;12.68;3.20;;;13.20;82.50;;;;;;5015615;28;20036;-85
2022/02/22 10:00:28;;;;;;;11.65;2.40;;;13.20;82.70;;;;;;5027522;28;20045;-86
2022/02/22 10:02:54;;;;;;;10.95;2.05;;;13.30;82.50;;;;;;5029535;28;20030;-85
2022/02/22 10:05:21;;;;;;;8.32;3.00;;;13.40;82.10;;;;;;5015489;28;20032;-86
2022/02/22 10:08:01;;;;;;;4.35;1.85;;;13.40;81.90;;;;;;5015161;28;20090;-86
2022/02/22 10:10:39;;;;;;;4.00;2.10;;;13.50;81.80;;;;;;5047116;28;20045;-86
2022/02/22 10:13:07;;;;;;;6.63;2.65;;;13.60;81.80;;;;;;5015471;28;20109;-86
2022/02/22 10:15:38;;;;;;;8.20;1.75;;;13.70;81.60;;;;;;5024945;28;20017;-86
2022/02/22 10:18:04;;;;;;;7.95;2.45;;;13.80;81.20;;;;;;5036932;28;20026;-86
2022/02/22 10:20:29;;;;;;;8.88;2.38;;;13.60;81.40;;;;;;5013727;28;20504;-86
2022/02/22 10:22:57;;;;;;;12.48;3.08;;;13.70;81.50;;;;;;5015195;28;20033;-86
2022/02/22 10:25:25;;;;;;;6.07;1.95;;;13.60;81.70;;;;;;5014869;28;20041;-86
2022/02/22 10:27:52;;;;;;;9.10;2.08;;;13.70;81.30;;;;;;5049316;28;20123;-86
2022/02/22 10:30:43;;;;;;;5.63;1.67;;;13.80;81.50;;;;;;5032953;28;20038;-83
2022/02/22 10:33:23;;;;;;;6.28;2.08;;;13.60;81.30;;;;;;5032195;28;20022;-86
2022/02/22 10:35:51;;;;;;;10.50;2.70;;;13.80;81.40;;;;;;5015101;28;20025;-87
2022/02/22 10:38:25;;;;;;;8.95;2.13;;;14.00;80.90;;;;;;5015179;28;20041;-87
2022/02/22 10:41:19;;;;;;;7.75;2.33;;;14.10;80.80;;;;;;5015226;28;20030;-87
2022/02/22 10:43:53;;;;;;;11.55;2.30;;;14.40;79.70;;;;;;5014883;28;20046;-87
2022/02/22 10:46:28;;;;;;;9.57;3.10;;;14.50;78.70;;;;;;5015077;28;20091;-87
2022/02/22 10:49:23;;;;;;;12.32;2.33;;;14.70;78.90;;;;;;5015110;28;20032;-85
2022/02/22 10:51:51;;;;;;;11.20;2.33;;;14.70;77.70;;;;;;5015064;28;20406;-87
2022/02/22 10:54:22;;;;;;;11.23;2.78;;;14.80;77.90;;;;;;5014908;28;20026;-86
2022/02/22 10:56:49;;;;;;;5.18;1.73;;;14.80;78.10;;;;;;5014962;28;20030;-87
2022/02/22 10:59:16;;;;;;;6.35;2.10;;;15.00;77.90;;;;;;5013348;28;20101;-87
2022/02/22 11:01:42;;;;;;;7.43;2.10;;;15.10;77.30;;;;;;5014968;28;20113;-86
2022/02/22 11:04:09;;;;;;;7.80;3.25;;;15.40;76.70;;;;;;5014980;28;20091;-86
2022/02/22 11:06:34;;;;;;;7.00;2.10;;;15.70;76.40;;;;;;5019314;28;20025;-86
2022/02/22 11:09:00;;;;;;;8.63;2.30;;;15.90;75.40;;;;;;5038197;28;20037;-87
2022/02/22 11:11:39;;;;;;;5.25;1.38;;;15.90;74.50;;;;;;5030318;28;20068;-87
2022/02/22 11:14:23;;;;;;;4.65;1.52;;;15.80;74.10;;;;;;5017184;28;20025;-87
2022/02/22 11:16:51;;;;;;;6.60;2.03;;;15.50;74.60;;;;;;5045071;28;20564;-87
2022/02/22 11:19:26;;;;;;;11.40;1.85;;;15.20;75.10;;;;;;5018408;28;20203;-87
2022/02/22 11:21:55;;;;;;;7.50;1.60;;;15.10;75.50;;;;;;5018451;28;20396;-87
2022/02/22 11:24:22;;;;;;;7.00;1.45;;;15.30;75.00;;;;;;5018397;28;20026;-87
2022/02/22 11:26:59;;;;;;;5.40;1.35;;;15.20;75.00;;;;;;5018381;28;20030;-87
2022/02/22 11:29:30;;;;;;;6.60;1.30;;;15.20;75.40;;;;;;5018279;28;20085;-87
2022/02/22 11:32:11;;;;;;;5.97;1.55;;;15.20;75.20;;;;;;5020955;28;20423;-87
2022/02/22 11:34:41;;;;;;;6.00;1.40;;;15.20;74.70;;;;;;5037768;28;20381;-87
2022/02/22 11:37:08;;;;;;;;;;;15.20;74.70;;;;;;5036800;28;20032;-87
2022/02/22 11:39:51;;;;;;;3.38;1.30;;;15.20;74.60;;;;;;5031294;28;19920;-86
2022/02/22 11:42:31;;;;;;;6.60;1.77;;;15.50;74.40;;;;;;5018222;28;20029;-88
2022/02/22 11:45:09;;;;;;;5.95;1.55;;;15.90;73.60;;;;;;5018226;28;20041;-87
2022/02/22 11:47:37;;;;;;;4.10;1.45;;;16.10;73.20;;;;;;5036895;28;20376;-88
2022/02/22 11:50:17;;;;;;;7.38;1.90;;;16.20;72.80;;;;;;5037959;28;20593;-88
2022/02/22 11:52:52;;;;;;;3.53;1.30;;;16.20;72.20;;;;;;5033987;28;20018;-88
2022/02/22 11:55:19;;;;;;;8.43;1.90;;;16.10;72.30;;;;;;5017691;28;20061;-88
2022/02/22 11:57:49;;;;;;;7.43;1.90;;;16.10;72.50;;;;;;5016520;28;20065;-87
2022/02/22 12:00:18;;;;;;;7.47;2.10;;;15.90;72.10;;;;;;5017806;28;20026;-87
2022/02/22 12:02:45;;;;;;;5.30;2.00;;;15.90;72.60;;;;;;5016278;28;20057;-87
2022/02/22 12:05:38;;;;;;;8.00;1.67;;;15.80;72.40;;;;;;5017660;28;20026;-87
2022/02/22 12:08:19;;;;;;;4.20;1.70;;;15.70;72.70;;;;;;5017688;28;20034;-87
2022/02/22 12:10:49;;;;;;;10.00;1.92;;;15.60;73.10;;;;;;5019532;28;20029;-86
2022/02/22 12:13:17;;;;;;;7.15;1.75;;;15.50;73.10;;;;;;5037437;28;20035;-86
2022/02/22 12:15:44;;;;;;;6.60;2.15;;;15.30;73.40;;;;;;5042211;28;20055;-86
2022/02/22 12:18:21;;;;;;;10.90;2.85;;;15.20;73.70;;;;;;5057088;28;20056;-86
2022/02/22 12:20:49;;;;;;;8.13;2.88;;;15.30;73.70;;;;;;5027440;28;20061;-86
2022/02/22 12:23:16;;;;;;;7.28;1.77;;;15.30;73.60;;;;;;5017214;28;20532;-87
2022/02/22 12:25:42;;;;;;;10.98;1.63;;;15.20;73.80;;;;;;5018116;28;20037;-87
2022/02/22 12:28:07;;;;;;;6.13;2.00;;;15.10;73.70;;;;;;5036223;28;20431;-86
2022/02/22 12:30:37;;;;;;;8.63;1.45;;;15.00;74.20;;;;;;5035342;28;20060;-87
2022/02/22 12:33:05;;;;;;;4.22;1.80;;;15.00;74.40;;;;;;5022212;28;20041;-87
2022/02/22 12:35:42;;;;;;;8.70;1.67;;;14.80;74.70;;;;;;5017206;28;20057;-86
2022/02/22 12:38:19;;;;;;;5.50;1.63;;;14.90;74.90;;;;;;5017084;28;20113;-87
2022/02/22 12:40:47;;;;;;;6.50;2.20;;;14.80;74.90;;;;;;5017172;28;20633;-87
2022/02/22 12:43:14;;;;;;;8.02;2.40;;;14.90;74.70;;;;;;5016986;28;20037;-87
2022/02/22 12:45:43;;;;;;;5.03;2.00;;;14.80;74.40;;;;;;5015809;28;20022;-86
2022/02/22 12:48:10;;;;;;;5.07;1.73;;;14.80;74.70;;;;;;5016895;28;20514;-86
2022/02/22 12:50:37;;;;;;;9.02;2.55;;;14.80;74.70;;;;;;5016550;28;20061;-87
2022/02/22 12:53:03;;;;;;;8.68;2.00;;;14.90;74.60;;;;;;5016768;28;20061;-86
2022/02/22 12:55:30;;;;;;;9.18;2.30;;;15.10;74.40;;;;;;5017201;28;20018;-88
2022/02/22 12:58:07;;;;;;;8.32;1.98;;;15.20;74.00;;;;;;5016787;28;20029;-86
2022/02/22 13:00:33;;;;;;;6.50;1.70;;;15.40;72.50;;;;;;5016637;28;20022;-86
2022/02/22 13:03:15;;;;;;;11.48;2.28;;;15.80;72.50;;;;;;5017657;28;20105;-86
2022/02/22 13:05:43;;;;;;;6.28;1.60;;;16.00;72.10;;;;;;5036608;28;20085;-87
2022/02/22 13:08:10;;;;;;;7.22;1.77;;;16.10;70.30;;;;;;5036301;28;20036;-86
2022/02/22 13:10:43;;;;;;;6.85;2.28;;;16.30;68.70;;;;;;5022690;28;20036;-87
2022/02/22 13:13:10;;;;;;;6.45;1.92;;;16.10;68.70;;;;;;5036091;28;20033;-87
2022/02/22 13:15:36;;;;;;;8.30;2.05;;;16.20;69.20;;;;;;5034871;28;20584;-87